createdAt,value
2023-03-06T00:00:11.069Z,79.35
2023-03-06T00:01:11.071Z,79.44
2023-03-06T00:02:11.074Z,79.59
2023-03-06T00:03:11.071Z,79.70
2023-03-06T00:04:12.072Z,79.68
2023-03-06T00:05:11.070Z,79.60
2023-03-06T00:06:11.101Z,79.59
2023-03-06T00:07:11.075Z,79.57
2023-03-06T00:08:11.071Z,79.68
2023-03-06T00:09:11.087Z,79.60
2023-03-06T00:10:15.079Z,79.60
2023-03-06T00:11:11.070Z,79.77
2023-03-06T00:12:11.071Z,80.02
2023-03-06T00:13:12.080Z,79.82
2023-03-06T00:14:11.077Z,79.78
2023-03-06T00:15:11.077Z,79.69
2023-03-06T00:16:11.104Z,79.74
2023-03-06T00:17:11.071Z,79.78
2023-03-06T00:18:11.076Z,79.68
2023-03-06T00:19:11.080Z,79.61
2023-03-06T00:20:11.096Z,79.90
2023-03-06T00:21:11.080Z,80.09
2023-03-06T00:22:13.081Z,80.14
2023-03-06T00:23:11.072Z,79.97
2023-03-06T00:24:11.073Z,79.80
2023-03-06T00:25:13.084Z,79.72
2023-03-06T00:26:11.077Z,79.73
2023-03-06T00:27:11.073Z,79.66
2023-03-06T00:28:11.075Z,79.68
2023-03-06T00:29:11.088Z,79.51
2023-03-06T00:30:12.072Z,79.43
2023-03-06T00:31:11.104Z,79.32
2023-03-06T00:32:11.213Z,79.26
2023-03-06T00:33:11.080Z,79.15
2023-03-06T00:34:11.078Z,79.09
2023-03-06T00:35:11.084Z,79.17
2023-03-06T00:36:11.073Z,79.15
2023-03-06T00:37:11.086Z,79.14
2023-03-06T00:38:12.079Z,79.20
2023-03-06T00:39:11.082Z,79.19
2023-03-06T00:40:12.072Z,79.41
2023-03-06T00:41:11.086Z,79.40
2023-03-06T00:42:11.090Z,79.44
2023-03-06T00:43:11.099Z,79.58
2023-03-06T00:44:11.085Z,79.49
2023-03-06T00:45:11.081Z,79.60
2023-03-06T00:46:11.226Z,79.63
2023-03-06T00:47:11.092Z,79.60
2023-03-06T00:48:11.071Z,79.61
2023-03-06T00:49:11.075Z,79.56
2023-03-06T00:50:11.133Z,79.62
2023-03-06T00:51:13.877Z,79.81
2023-03-06T00:52:11.073Z,79.66
2023-03-06T00:53:11.089Z,79.64
2023-03-06T00:54:11.072Z,79.70
2023-03-06T00:55:11.143Z,79.60
2023-03-06T00:56:11.078Z,79.59
2023-03-06T00:57:11.074Z,79.50
2023-03-06T00:58:11.069Z,79.49
2023-03-06T00:59:11.076Z,79.45
2023-03-06T01:00:11.075Z,79.49
2023-03-06T01:01:11.116Z,79.48
2023-03-06T01:02:11.145Z,79.33
2023-03-06T01:03:11.065Z,79.27
2023-03-06T01:04:11.064Z,79.20
2023-03-06T01:05:12.059Z,79.18
2023-03-06T01:06:11.073Z,79.14
2023-03-06T01:07:11.058Z,79.15
2023-03-06T01:08:11.064Z,79.20
2023-03-06T01:09:11.060Z,79.39
2023-03-06T01:10:11.062Z,79.26
2023-03-06T01:11:11.061Z,79.25
2023-03-06T01:12:11.069Z,79.30
2023-03-06T01:13:11.060Z,79.23
2023-03-06T01:14:11.064Z,79.29
2023-03-06T01:15:11.068Z,79.21
2023-03-06T01:16:11.109Z,79.12
2023-03-06T01:17:11.059Z,79.27
2023-03-06T01:18:11.066Z,79.27
2023-03-06T01:19:11.057Z,79.38
2023-03-06T01:20:12.060Z,79.34
2023-03-06T01:21:12.069Z,79.28
2023-03-06T01:22:11.055Z,79.31
2023-03-06T01:23:11.060Z,79.39
2023-03-06T01:24:11.066Z,79.43
2023-03-06T01:25:11.055Z,79.43
2023-03-06T01:26:11.058Z,79.54
2023-03-06T01:27:11.072Z,79.53
2023-03-06T01:28:11.054Z,79.38
2023-03-06T01:29:11.058Z,79.28
2023-03-06T01:30:11.065Z,79.16
2023-03-06T01:31:11.099Z,79.19
2023-03-06T01:32:11.121Z,79.19
2023-03-06T01:33:11.066Z,79.10
2023-03-06T01:34:11.056Z,78.95
2023-03-06T01:35:11.059Z,78.91
2023-03-06T01:36:11.101Z,78.82
2023-03-06T01:37:11.063Z,78.87
2023-03-06T01:38:11.055Z,78.90
2023-03-06T01:39:11.072Z,78.94
2023-03-06T01:40:11.063Z,78.83
2023-03-06T01:41:11.056Z,78.73
2023-03-06T01:42:11.063Z,78.84
2023-03-06T01:43:21.061Z,78.88
2023-03-06T01:44:11.063Z,78.84
2023-03-06T01:45:19.066Z,78.84
2023-03-06T01:46:19.064Z,78.85
2023-03-06T01:47:11.064Z,78.92
2023-03-06T01:48:11.061Z,79.13
2023-03-06T01:49:22.084Z,79.07
2023-03-06T01:50:12.076Z,78.91
2023-03-06T01:51:11.064Z,78.92
2023-03-06T01:52:14.064Z,78.93
2023-03-06T01:53:11.072Z,78.93
2023-03-06T01:54:19.067Z,78.89
2023-03-06T01:55:13.061Z,78.94
2023-03-06T01:56:11.069Z,78.98
2023-03-06T01:57:19.070Z,78.94
2023-03-06T01:58:15.065Z,79.01
2023-03-06T01:59:11.065Z,79.05
2023-03-06T02:00:14.069Z,79.22
2023-03-06T02:01:11.105Z,79.11
2023-03-06T02:02:11.135Z,78.96
2023-03-06T02:03:16.073Z,78.88
2023-03-06T02:04:11.066Z,79.08
2023-03-06T02:05:11.070Z,79.13
2023-03-06T02:06:11.074Z,79.16
2023-03-06T02:07:11.063Z,79.24
2023-03-06T02:08:11.066Z,79.30
2023-03-06T02:09:11.067Z,79.22
2023-03-06T02:10:11.070Z,79.31
2023-03-06T02:11:15.106Z,79.48
2023-03-06T02:12:12.077Z,79.45
2023-03-06T02:13:11.072Z,79.59
2023-03-06T02:14:14.065Z,79.67
2023-03-06T02:15:13.075Z,79.61
2023-03-06T02:16:11.085Z,79.72
2023-03-06T02:17:11.083Z,80.05
2023-03-06T02:18:11.077Z,79.95
2023-03-06T02:19:19.067Z,79.99
2023-03-06T02:20:19.072Z,80.11
2023-03-06T02:21:12.070Z,80.33
2023-03-06T02:22:11.070Z,80.28
2023-03-06T02:23:16.069Z,80.48
2023-03-06T02:24:19.072Z,80.50
2023-03-06T02:25:19.071Z,80.55
2023-03-06T02:26:11.073Z,80.52
2023-03-06T02:27:11.066Z,80.56
2023-03-06T02:28:11.082Z,80.43
2023-03-06T02:29:11.070Z,80.51
2023-03-06T02:30:11.068Z,80.59
2023-03-06T02:31:15.103Z,80.92
2023-03-06T02:32:11.134Z,81.02
2023-03-06T02:33:12.070Z,81.16
2023-03-06T02:34:19.072Z,81.03
2023-03-06T02:35:19.072Z,80.95
2023-03-06T02:36:15.072Z,80.90
2023-03-06T02:37:11.069Z,80.88
2023-03-06T02:38:13.073Z,80.85
2023-03-06T02:39:11.072Z,81.05
2023-03-06T02:40:12.077Z,81.01
2023-03-06T02:41:11.071Z,80.87
2023-03-06T02:42:11.073Z,80.91
2023-03-06T02:43:11.070Z,80.93
2023-03-06T02:44:11.070Z,80.96
2023-03-06T02:45:12.093Z,81.21
2023-03-06T02:46:11.115Z,81.50
2023-03-06T02:47:11.072Z,81.65
2023-03-06T02:48:11.077Z,81.72
2023-03-06T02:49:11.065Z,81.61
2023-03-06T02:50:11.068Z,81.56
2023-03-06T02:51:11.076Z,81.60
2023-03-06T02:52:11.073Z,81.63
2023-03-06T02:53:11.073Z,81.70
2023-03-06T02:54:11.076Z,81.87
2023-03-06T02:55:11.066Z,81.89
2023-03-06T02:56:11.068Z,81.86
2023-03-06T02:57:11.077Z,81.73
2023-03-06T02:58:11.066Z,81.60
2023-03-06T02:59:11.082Z,81.55
2023-03-06T03:00:11.083Z,81.41
2023-03-06T03:01:11.110Z,81.53
2023-03-06T03:02:11.083Z,81.93
2023-03-06T03:03:11.074Z,81.75
2023-03-06T03:04:11.085Z,81.75
2023-03-06T03:05:11.065Z,81.43
2023-03-06T03:06:11.075Z,81.54
2023-03-06T03:07:11.062Z,81.49
2023-03-06T03:08:11.068Z,81.50
2023-03-06T03:09:11.074Z,81.56
2023-03-06T03:10:11.062Z,81.60
2023-03-06T03:11:11.065Z,81.69
2023-03-06T03:12:11.074Z,81.66
2023-03-06T03:13:11.063Z,81.72
2023-03-06T03:14:11.065Z,81.89
2023-03-06T03:15:11.069Z,81.86
2023-03-06T03:16:12.114Z,82.15
2023-03-06T03:17:11.071Z,81.97
2023-03-06T03:18:11.070Z,81.87
2023-03-06T03:19:11.066Z,82.00
2023-03-06T03:20:13.072Z,81.84
2023-03-06T03:21:11.076Z,81.83
2023-03-06T03:22:11.069Z,81.76
2023-03-06T03:23:11.084Z,81.80
2023-03-06T03:24:11.075Z,81.87
2023-03-06T03:25:11.076Z,82.04
2023-03-06T03:26:11.069Z,81.99
2023-03-06T03:27:11.075Z,81.85
2023-03-06T03:28:11.069Z,81.93
2023-03-06T03:29:11.073Z,82.06
2023-03-06T03:30:11.085Z,82.30
2023-03-06T03:31:11.102Z,82.17
2023-03-06T03:32:11.109Z,82.30
2023-03-06T03:33:11.073Z,82.22
2023-03-06T03:34:11.077Z,82.26
2023-03-06T03:35:11.072Z,82.47
2023-03-06T03:36:11.074Z,82.64
2023-03-06T03:37:11.071Z,82.62
2023-03-06T03:38:11.073Z,82.56
2023-03-06T03:39:11.087Z,82.48
2023-03-06T03:40:11.088Z,82.48
2023-03-06T03:41:11.072Z,82.54
2023-03-06T03:42:11.074Z,82.55
2023-03-06T03:43:11.071Z,82.61
2023-03-06T03:44:11.073Z,82.78
2023-03-06T03:45:11.080Z,82.97
2023-03-06T03:46:11.110Z,83.06
2023-03-06T03:47:11.075Z,83.07
2023-03-06T03:48:11.082Z,83.09
2023-03-06T03:49:11.079Z,83.03
2023-03-06T03:50:11.072Z,83.04
2023-03-06T03:51:13.092Z,83.03
2023-03-06T03:52:11.071Z,82.94
2023-03-06T03:53:11.073Z,82.98
2023-03-06T03:54:11.084Z,83.06
2023-03-06T03:55:11.071Z,82.94
2023-03-06T03:56:11.072Z,82.76
2023-03-06T03:57:11.083Z,82.57
2023-03-06T03:58:11.074Z,82.58
2023-03-06T03:59:11.072Z,82.74
2023-03-06T04:00:12.082Z,82.79
2023-03-06T04:01:11.058Z,82.76
2023-03-06T04:02:11.154Z,83.00
2023-03-06T04:03:11.067Z,82.97
2023-03-06T04:04:11.070Z,82.93
2023-03-06T04:05:11.144Z,82.88
2023-03-06T04:06:11.068Z,82.86
2023-03-06T04:07:11.058Z,82.85
2023-03-06T04:08:11.066Z,82.79
2023-03-06T04:09:11.068Z,82.78
2023-03-06T04:10:11.061Z,82.57
2023-03-06T04:11:11.056Z,82.50
2023-03-06T04:12:11.085Z,82.48
2023-03-06T04:13:11.061Z,82.47
2023-03-06T04:14:12.068Z,82.37
2023-03-06T04:15:11.063Z,82.45
2023-03-06T04:16:11.079Z,82.42
2023-03-06T04:17:11.058Z,82.51
2023-03-06T04:18:11.064Z,82.52
2023-03-06T04:19:11.061Z,82.52
2023-03-06T04:20:11.055Z,82.49
2023-03-06T04:21:11.064Z,82.43
2023-03-06T04:22:11.058Z,82.31
2023-03-06T04:23:11.056Z,82.46
2023-03-06T04:24:11.062Z,82.67
2023-03-06T04:25:11.064Z,82.61
2023-03-06T04:26:11.056Z,82.61
2023-03-06T04:27:11.064Z,82.51
2023-03-06T04:28:11.062Z,82.55
2023-03-06T04:29:11.057Z,82.57
2023-03-06T04:30:11.080Z,82.75
2023-03-06T04:31:12.175Z,82.80
2023-03-06T04:32:11.114Z,82.63
2023-03-06T04:33:11.075Z,82.69
2023-03-06T04:34:11.069Z,82.87
2023-03-06T04:35:11.059Z,82.89
2023-03-06T04:36:19.072Z,82.86
2023-03-06T04:37:17.065Z,82.78
2023-03-06T04:38:11.062Z,82.80
2023-03-06T04:39:11.126Z,82.96
2023-03-06T04:40:16.070Z,82.76
2023-03-06T04:41:11.068Z,82.86
2023-03-06T04:42:11.073Z,83.06
2023-03-06T04:43:11.075Z,83.05
2023-03-06T04:44:11.066Z,82.94
2023-03-06T04:45:11.069Z,83.01
2023-03-06T04:46:11.072Z,82.96
2023-03-06T04:47:11.062Z,83.11
2023-03-06T04:48:12.069Z,82.85
2023-03-06T04:49:11.075Z,82.83
2023-03-06T04:50:11.067Z,82.77
2023-03-06T04:51:13.069Z,82.95
2023-03-06T04:52:11.077Z,83.11
2023-03-06T04:53:11.086Z,83.48
2023-03-06T04:54:11.066Z,83.52
2023-03-06T04:55:12.069Z,83.39
2023-03-06T04:56:11.068Z,83.32
2023-03-06T04:57:11.074Z,83.55
2023-03-06T04:58:11.067Z,83.54
2023-03-06T04:59:11.068Z,83.40
2023-03-06T05:00:15.068Z,83.44
2023-03-06T05:01:11.148Z,83.41
2023-03-06T05:02:11.198Z,83.47
2023-03-06T05:03:11.065Z,83.40
2023-03-06T05:04:11.067Z,83.49
2023-03-06T05:05:11.084Z,83.35
2023-03-06T05:06:11.067Z,83.24
2023-03-06T05:07:11.065Z,83.23
2023-03-06T05:08:12.073Z,83.30
2023-03-06T05:09:11.061Z,83.23
2023-03-06T05:10:13.075Z,83.30
2023-03-06T05:11:11.071Z,83.32
2023-03-06T05:12:11.074Z,83.21
2023-03-06T05:13:11.064Z,83.18
2023-03-06T05:14:11.070Z,83.03
2023-03-06T05:15:11.062Z,83.01
2023-03-06T05:16:11.119Z,82.97
2023-03-06T05:17:11.069Z,82.97
2023-03-06T05:18:11.063Z,83.00
2023-03-06T05:19:11.067Z,83.04
2023-03-06T05:20:11.099Z,83.34
2023-03-06T05:21:11.061Z,83.33
2023-03-06T05:22:11.070Z,83.50
2023-03-06T05:23:11.070Z,83.43
2023-03-06T05:24:11.061Z,83.49
2023-03-06T05:25:11.071Z,83.51
2023-03-06T05:26:11.073Z,83.26
2023-03-06T05:27:11.062Z,83.14
2023-03-06T05:28:11.058Z,83.20
2023-03-06T05:29:11.064Z,83.02
2023-03-06T05:30:11.061Z,83.02
2023-03-06T05:31:11.067Z,83.05
2023-03-06T05:32:11.208Z,82.96
2023-03-06T05:33:11.062Z,83.00
2023-03-06T05:34:12.059Z,82.94
2023-03-06T05:35:15.066Z,82.88
2023-03-06T05:36:11.084Z,83.04
2023-03-06T05:37:11.062Z,83.26
2023-03-06T05:38:11.067Z,83.24
2023-03-06T05:39:11.082Z,83.29
2023-03-06T05:40:13.066Z,83.13
2023-03-06T05:41:12.066Z,83.06
2023-03-06T05:42:11.077Z,83.26
2023-03-06T05:43:11.065Z,83.44
2023-03-06T05:44:11.069Z,83.45
2023-03-06T05:45:11.100Z,83.37
2023-03-06T05:46:11.105Z,83.46
2023-03-06T05:47:11.071Z,83.51
2023-03-06T05:48:11.076Z,83.43
2023-03-06T05:49:11.070Z,83.38
2023-03-06T05:50:12.080Z,83.36
2023-03-06T05:51:11.077Z,83.35
2023-03-06T05:52:11.071Z,83.38
2023-03-06T05:53:11.077Z,83.38
2023-03-06T05:54:11.076Z,83.27
2023-03-06T05:55:12.072Z,83.28
2023-03-06T05:56:11.068Z,83.44
2023-03-06T05:57:11.071Z,83.57
2023-03-06T05:58:11.071Z,83.56
2023-03-06T05:59:11.079Z,83.65
2023-03-06T06:00:11.080Z,83.63
2023-03-06T06:01:14.069Z,83.74
2023-03-06T06:02:11.118Z,83.58
2023-03-06T06:03:11.104Z,83.43
2023-03-06T06:04:11.066Z,83.54
2023-03-06T06:05:13.004Z,83.59
2023-03-06T06:06:11.066Z,83.40
2023-03-06T06:07:12.068Z,83.52
2023-03-06T06:08:11.067Z,83.61
2023-03-06T06:09:13.777Z,83.52
2023-03-06T06:10:11.068Z,83.58
2023-03-06T06:11:11.066Z,83.73
2023-03-06T06:12:11.065Z,83.65
2023-03-06T06:13:11.078Z,83.53
2023-03-06T06:14:11.068Z,83.48
2023-03-06T06:15:11.068Z,83.53
2023-03-06T06:16:11.086Z,83.44
2023-03-06T06:17:11.068Z,83.53
2023-03-06T06:18:11.065Z,83.44
2023-03-06T06:19:11.070Z,83.50
2023-03-06T06:20:11.067Z,83.56
2023-03-06T06:21:11.101Z,83.54
2023-03-06T06:22:11.072Z,83.64
2023-03-06T06:23:11.074Z,83.73
2023-03-06T06:24:11.070Z,83.86
2023-03-06T06:25:11.068Z,83.94
2023-03-06T06:26:11.088Z,84.01
2023-03-06T06:27:11.080Z,83.99
2023-03-06T06:28:11.080Z,83.81
2023-03-06T06:29:11.070Z,83.87
2023-03-06T06:30:11.068Z,84.06
2023-03-06T06:31:13.135Z,83.93
2023-03-06T06:32:11.150Z,83.89
2023-03-06T06:33:11.076Z,83.77
2023-03-06T06:34:11.069Z,83.75
2023-03-06T06:35:11.075Z,83.55
2023-03-06T06:36:15.072Z,83.72
2023-03-06T06:37:11.069Z,83.76
2023-03-06T06:38:11.067Z,84.01
2023-03-06T06:39:11.067Z,84.01
2023-03-06T06:40:11.072Z,83.89
2023-03-06T06:41:38.872Z,83.94
2023-03-06T06:42:30.574Z,83.87
2023-03-06T06:43:13.073Z,83.89
2023-03-06T06:44:11.071Z,83.86
2023-03-06T06:45:13.078Z,84.01
2023-03-06T06:46:47.184Z,84.06
2023-03-06T06:47:24.794Z,83.97
2023-03-06T06:48:13.117Z,83.97
2023-03-06T06:49:11.070Z,83.95
2023-03-06T06:50:12.078Z,84.18
2023-03-06T06:51:11.067Z,84.05
2023-03-06T06:52:11.076Z,84.06
2023-03-06T06:53:11.077Z,84.03
2023-03-06T06:54:11.067Z,84.04
2023-03-06T06:55:11.087Z,84.04
2023-03-06T06:56:11.077Z,84.00
2023-03-06T06:57:11.068Z,84.17
2023-03-06T06:58:11.064Z,84.17
2023-03-06T06:59:16.493Z,84.27
2023-03-06T07:00:17.070Z,84.22
2023-03-06T07:01:12.104Z,84.33
2023-03-06T07:02:14.060Z,84.25
2023-03-06T07:03:11.069Z,84.33
2023-03-06T07:04:12.094Z,84.19
2023-03-06T07:05:11.062Z,84.19
2023-03-06T07:06:11.068Z,84.31
2023-03-06T07:07:11.071Z,84.33
2023-03-06T07:08:11.064Z,84.37
2023-03-06T07:09:11.070Z,84.36
2023-03-06T07:10:13.080Z,84.30
2023-03-06T07:11:12.065Z,84.26
2023-03-06T07:12:11.077Z,84.32
2023-03-06T07:13:11.062Z,84.25
2023-03-06T07:14:11.070Z,84.12
2023-03-06T07:15:12.081Z,84.15
2023-03-06T07:16:11.087Z,84.10
2023-03-06T07:17:11.065Z,84.10
2023-03-06T07:18:11.072Z,83.96
2023-03-06T07:19:11.067Z,83.78
2023-03-06T07:20:11.059Z,83.71
2023-03-06T07:21:11.089Z,83.71
2023-03-06T07:22:11.097Z,83.88
2023-03-06T07:23:13.070Z,83.69
2023-03-06T07:24:11.072Z,83.74
2023-03-06T07:25:11.063Z,83.81
2023-03-06T07:26:11.057Z,83.59
2023-03-06T07:27:11.078Z,83.73
2023-03-06T07:28:11.121Z,83.75
2023-03-06T07:29:11.071Z,83.88
2023-03-06T07:30:11.074Z,83.61
2023-03-06T07:31:11.096Z,83.50
2023-03-06T07:32:11.136Z,83.49
2023-03-06T07:33:11.073Z,83.50
2023-03-06T07:34:14.065Z,83.47
2023-03-06T07:35:20.205Z,83.46
2023-03-06T07:36:14.055Z,83.59
2023-03-06T07:37:11.066Z,83.51
2023-03-06T07:38:11.064Z,83.41
2023-03-06T07:39:11.066Z,83.49
2023-03-06T07:40:11.070Z,83.39
2023-03-06T07:41:13.072Z,83.20
2023-03-06T07:42:12.067Z,83.12
2023-03-06T07:43:19.129Z,83.14
2023-03-06T07:44:13.108Z,83.05
2023-03-06T07:45:11.071Z,82.99
2023-03-06T07:46:11.123Z,83.03
2023-03-06T07:47:11.075Z,83.09
2023-03-06T07:48:11.071Z,82.95
2023-03-06T07:49:11.077Z,83.05
2023-03-06T07:50:11.067Z,82.82
2023-03-06T07:51:14.082Z,82.90
2023-03-06T07:52:11.080Z,82.87
2023-03-06T07:53:11.658Z,82.79
2023-03-06T07:54:11.073Z,82.72
2023-03-06T07:55:11.080Z,82.76
2023-03-06T07:56:12.073Z,82.87
2023-03-06T07:57:11.077Z,82.91
2023-03-06T07:58:11.080Z,82.99
2023-03-06T07:59:11.070Z,82.97
2023-03-06T08:00:13.074Z,82.83
2023-03-06T08:01:14.095Z,82.75
2023-03-06T08:02:12.072Z,82.67
2023-03-06T08:03:11.193Z,82.66
2023-03-06T08:04:11.114Z,82.54
2023-03-06T08:05:12.070Z,82.62
2023-03-06T08:06:14.088Z,82.54
2023-03-06T08:07:11.081Z,82.58
2023-03-06T08:08:11.089Z,82.63
2023-03-06T08:09:11.081Z,82.81
2023-03-06T08:10:12.084Z,82.83
2023-03-06T08:11:11.121Z,82.74
2023-03-06T08:12:11.069Z,82.64
2023-03-06T08:13:11.080Z,82.64
2023-03-06T08:14:11.086Z,82.44
2023-03-06T08:15:11.081Z,83.01
2023-03-06T08:16:11.131Z,82.82
2023-03-06T08:17:11.067Z,82.56
2023-03-06T08:18:11.078Z,82.40
2023-03-06T08:19:11.087Z,82.40
2023-03-06T08:20:12.070Z,82.32
2023-03-06T08:21:11.076Z,82.32
2023-03-06T08:22:11.087Z,82.19
2023-03-06T08:23:11.071Z,82.14
2023-03-06T08:24:11.069Z,82.18
2023-03-06T08:25:11.076Z,82.16
2023-03-06T08:26:12.067Z,82.17
2023-03-06T08:27:11.089Z,82.09
2023-03-06T08:28:11.102Z,82.11
2023-03-06T08:29:11.072Z,82.17
2023-03-06T08:30:11.095Z,82.27
2023-03-06T08:31:19.087Z,82.18
2023-03-06T08:32:13.133Z,82.16
2023-03-06T08:33:11.065Z,82.25
2023-03-06T08:34:12.076Z,82.08
2023-03-06T08:35:11.070Z,82.09
2023-03-06T08:36:11.065Z,82.15
2023-03-06T08:37:11.185Z,82.27
2023-03-06T08:38:11.073Z,82.29
2023-03-06T08:39:11.068Z,82.21
2023-03-06T08:40:11.075Z,82.10
2023-03-06T08:41:11.076Z,81.93
2023-03-06T08:42:11.089Z,81.91
2023-03-06T08:43:14.304Z,81.75
2023-03-06T08:44:11.069Z,81.70
2023-03-06T08:45:11.075Z,81.68
2023-03-06T08:46:11.076Z,81.68
2023-03-06T08:47:11.142Z,81.70
2023-03-06T08:48:11.087Z,81.68
2023-03-06T08:49:11.074Z,81.59
2023-03-06T08:50:11.071Z,81.43
2023-03-06T08:51:11.068Z,81.24
2023-03-06T08:52:11.069Z,81.16
2023-03-06T08:53:11.073Z,80.71
2023-03-06T08:54:12.065Z,80.79
2023-03-06T08:55:11.071Z,80.69
2023-03-06T08:56:15.068Z,80.44
2023-03-06T08:57:11.076Z,80.46
2023-03-06T08:58:11.072Z,80.51
2023-03-06T08:59:11.075Z,80.39
2023-03-06T09:00:12.067Z,80.18
2023-03-06T09:01:17.135Z,80.31
2023-03-06T09:02:13.137Z,80.18
2023-03-06T09:03:11.068Z,79.94
2023-03-06T09:04:11.076Z,80.11
2023-03-06T09:05:11.082Z,79.82
2023-03-06T09:06:11.078Z,79.94
2023-03-06T09:07:11.072Z,80.14
2023-03-06T09:08:11.077Z,80.10
2023-03-06T09:09:11.068Z,79.91
2023-03-06T09:10:14.114Z,79.79
2023-03-06T09:11:11.091Z,79.87
2023-03-06T09:12:11.070Z,79.63
2023-03-06T09:13:11.080Z,79.98
2023-03-06T09:14:11.071Z,79.82
2023-03-06T09:15:11.073Z,79.85
2023-03-06T09:16:11.197Z,79.69
2023-03-06T09:17:11.071Z,79.76
2023-03-06T09:18:11.070Z,79.73
2023-03-06T09:19:11.067Z,79.74
2023-03-06T09:20:11.073Z,79.79
2023-03-06T09:21:11.073Z,79.76
2023-03-06T09:22:11.068Z,79.59
2023-03-06T09:23:11.073Z,79.77
2023-03-06T09:24:11.074Z,79.81
2023-03-06T09:25:11.086Z,79.86
2023-03-06T09:26:11.076Z,79.77
2023-03-06T09:27:11.074Z,79.89
2023-03-06T09:28:12.049Z,79.86
2023-03-06T09:29:11.076Z,79.96
2023-03-06T09:30:11.077Z,79.75
2023-03-06T09:31:16.210Z,79.50
2023-03-06T09:32:12.204Z,79.45
2023-03-06T09:33:11.087Z,79.26
2023-03-06T09:34:11.080Z,79.26
2023-03-06T09:35:11.083Z,79.14
2023-03-06T09:36:14.088Z,78.96
2023-03-06T09:37:11.083Z,78.92
2023-03-06T09:38:11.078Z,78.88
2023-03-06T09:39:11.082Z,78.92
2023-03-06T09:40:19.080Z,79.12
2023-03-06T09:42:16.416Z,79.12
2023-03-06T09:43:19.089Z,79.10
2023-03-06T09:44:20.077Z,79.18
2023-03-06T09:45:12.084Z,79.16
2023-03-06T09:46:19.104Z,79.31
2023-03-06T09:47:19.088Z,79.14
2023-03-06T09:48:15.082Z,79.19
2023-03-06T09:49:22.074Z,79.29
2023-03-06T09:50:19.076Z,79.45
2023-03-06T09:51:15.086Z,79.35
2023-03-06T09:52:21.084Z,79.18
2023-03-06T09:53:21.075Z,79.24
2023-03-06T09:54:15.089Z,79.19
2023-03-06T09:55:18.085Z,78.98
2023-03-06T09:56:19.075Z,79.11
2023-03-06T09:57:18.083Z,79.25
2023-03-06T09:58:17.077Z,79.18
2023-03-06T09:59:17.086Z,79.23
2023-03-06T10:00:15.068Z,78.87
2023-03-06T10:01:20.067Z,79.00
2023-03-06T10:02:19.253Z,78.99
2023-03-06T10:03:19.222Z,78.95
2023-03-06T10:04:19.052Z,78.94
2023-03-06T10:05:23.057Z,78.95
2023-03-06T10:06:19.063Z,79.00
2023-03-06T10:07:19.058Z,78.97
2023-03-06T10:08:19.057Z,79.01
2023-03-06T10:09:19.064Z,79.01
2023-03-06T10:10:19.067Z,79.02
2023-03-06T10:11:11.070Z,78.84
2023-03-06T10:12:22.055Z,79.00
2023-03-06T10:13:19.055Z,78.95
2023-03-06T10:14:19.100Z,78.89
2023-03-06T10:15:19.069Z,78.95
2023-03-06T10:16:19.066Z,78.96
2023-03-06T10:17:18.058Z,79.00
2023-03-06T10:18:12.060Z,79.05
2023-03-06T10:19:17.075Z,79.23
2023-03-06T10:20:19.058Z,79.01
2023-03-06T10:21:19.651Z,78.96
2023-03-06T10:22:19.061Z,78.72
2023-03-06T10:23:21.076Z,78.98
2023-03-06T10:24:19.063Z,78.75
2023-03-06T10:25:19.063Z,78.53
2023-03-06T10:26:19.169Z,78.37
2023-03-06T10:27:19.197Z,78.23
2023-03-06T10:28:21.066Z,78.15
2023-03-06T10:29:23.064Z,78.16
2023-03-06T10:30:19.084Z,78.08
2023-03-06T10:31:22.124Z,77.87
2023-03-06T10:32:19.169Z,77.57
2023-03-06T10:33:19.074Z,77.71
2023-03-06T10:34:19.065Z,77.58
2023-03-06T10:35:19.143Z,77.44
2023-03-06T10:36:16.089Z,77.65
2023-03-06T10:37:18.068Z,77.66
2023-03-06T10:38:19.065Z,77.75
2023-03-06T10:39:15.065Z,77.62
2023-03-06T10:40:20.100Z,77.34
2023-03-06T10:41:19.066Z,77.17
2023-03-06T10:42:11.069Z,77.01
2023-03-06T10:43:12.485Z,77.16
2023-03-06T10:44:18.063Z,76.89
2023-03-06T10:45:16.070Z,76.65
2023-03-06T10:46:18.137Z,77.03
2023-03-06T10:47:19.067Z,76.81
2023-03-06T10:48:17.063Z,76.45
2023-03-06T10:49:19.065Z,76.21
2023-03-06T10:50:19.094Z,75.92
2023-03-06T10:51:21.070Z,75.94
2023-03-06T10:52:19.127Z,75.66
2023-03-06T10:53:19.067Z,75.27
2023-03-06T10:54:19.086Z,74.85
2023-03-06T10:55:19.075Z,74.99
2023-03-06T10:56:11.066Z,74.82
2023-03-06T10:57:18.094Z,74.56
2023-03-06T10:58:21.074Z,74.43
2023-03-06T10:59:19.087Z,74.20
2023-03-06T11:00:21.147Z,74.03
2023-03-06T11:01:19.160Z,74.39
2023-03-06T11:02:19.077Z,74.03
2023-03-06T11:03:21.070Z,74.21
2023-03-06T11:04:21.145Z,74.00
2023-03-06T11:05:19.073Z,73.79
2023-03-06T11:06:15.066Z,73.66
2023-03-06T11:07:16.182Z,73.52
2023-03-06T11:08:20.068Z,73.59
2023-03-06T11:09:19.105Z,73.36
2023-03-06T11:10:17.065Z,73.60
2023-03-06T11:11:18.506Z,73.72
2023-03-06T11:12:21.130Z,73.45
2023-03-06T11:13:19.081Z,73.45
2023-03-06T11:14:18.084Z,73.39
2023-03-06T11:15:18.083Z,73.50
2023-03-06T11:16:18.129Z,73.06
2023-03-06T11:17:19.086Z,72.80
2023-03-06T11:18:19.092Z,72.79
2023-03-06T11:19:19.068Z,72.93
2023-03-06T11:20:19.147Z,72.82
2023-03-06T11:21:19.085Z,72.88
2023-03-06T11:22:17.071Z,72.69
2023-03-06T11:23:19.084Z,72.40
2023-03-06T11:24:18.068Z,72.37
2023-03-06T11:25:15.070Z,72.38
2023-03-06T11:26:21.075Z,72.22
2023-03-06T11:27:21.063Z,71.79
2023-03-06T11:28:19.081Z,71.66
2023-03-06T11:29:21.122Z,71.62
2023-03-06T11:30:18.068Z,71.19
2023-03-06T11:31:21.271Z,71.22
2023-03-06T11:32:19.118Z,70.80
2023-03-06T11:33:18.175Z,69.53
2023-03-06T11:34:23.074Z,70.31
2023-03-06T11:35:20.111Z,70.39
2023-03-06T11:36:20.063Z,70.17
2023-03-06T11:37:21.066Z,70.18
2023-03-06T11:38:22.066Z,70.10
2023-03-06T11:39:19.069Z,70.18
2023-03-06T11:40:23.071Z,69.58
2023-03-06T11:41:19.079Z,69.71
2023-03-06T11:42:19.064Z,69.65
2023-03-06T11:43:21.069Z,69.43
2023-03-06T11:44:19.068Z,69.25
2023-03-06T11:45:21.072Z,69.34
2023-03-06T11:46:19.146Z,69.52
2023-03-06T11:47:22.067Z,69.23
2023-03-06T11:48:21.064Z,69.30
2023-03-06T11:49:21.065Z,69.22
2023-03-06T11:50:19.075Z,69.14
2023-03-06T11:51:17.075Z,69.18
2023-03-06T11:52:19.065Z,68.71
2023-03-06T11:53:15.068Z,68.73
2023-03-06T11:54:12.075Z,68.63
2023-03-06T11:55:15.064Z,68.48
2023-03-06T11:56:23.070Z,68.53
2023-03-06T11:57:17.071Z,68.42
2023-03-06T11:58:19.074Z,68.51
2023-03-06T11:59:19.074Z,68.53
2023-03-06T12:00:19.078Z,68.11
2023-03-06T12:01:21.069Z,68.05
2023-03-06T12:02:19.161Z,67.76
2023-03-06T12:03:21.071Z,67.25
2023-03-06T12:04:19.070Z,67.25
2023-03-06T12:05:19.257Z,67.24
2023-03-06T12:06:20.069Z,66.96
2023-03-06T12:07:19.095Z,67.07
2023-03-06T12:08:21.075Z,67.02
2023-03-06T12:09:19.085Z,67.37
2023-03-06T12:10:21.074Z,67.29
2023-03-06T12:11:19.103Z,67.48
2023-03-06T12:12:21.087Z,67.45
2023-03-06T12:13:19.077Z,67.21
2023-03-06T12:14:19.069Z,67.42
2023-03-06T12:15:21.076Z,66.71
2023-03-06T12:16:19.167Z,66.60
2023-03-06T12:17:19.079Z,66.78
2023-03-06T12:18:21.078Z,66.96
2023-03-06T12:19:19.073Z,66.57
2023-03-06T12:20:19.075Z,65.94
2023-03-06T12:21:19.077Z,65.80
2023-03-06T12:22:21.075Z,65.67
2023-03-06T12:23:21.072Z,65.62
2023-03-06T12:24:19.070Z,65.69
2023-03-06T12:25:21.073Z,65.39
2023-03-06T12:26:19.075Z,65.50
2023-03-06T12:27:19.072Z,65.46
2023-03-06T12:28:19.072Z,65.40
2023-03-06T12:29:21.080Z,65.23
2023-03-06T12:30:19.081Z,65.48
2023-03-06T12:31:19.134Z,65.05
2023-03-06T12:32:19.225Z,64.73
2023-03-06T12:33:18.073Z,64.50
2023-03-06T12:34:19.074Z,64.08
2023-03-06T12:35:21.127Z,64.37
2023-03-06T12:36:19.084Z,64.65
2023-03-06T12:37:23.076Z,64.61
2023-03-06T12:38:19.071Z,64.95
2023-03-06T12:39:15.069Z,64.71
2023-03-06T12:40:19.076Z,64.74
2023-03-06T12:41:21.074Z,65.04
2023-03-06T12:42:23.604Z,65.09
2023-03-06T12:43:19.077Z,65.20
2023-03-06T12:44:21.075Z,65.05
2023-03-06T12:45:21.099Z,65.05
2023-03-06T12:46:16.131Z,65.38
2023-03-06T12:47:11.078Z,65.51
2023-03-06T12:48:19.070Z,65.62
2023-03-06T12:49:31.450Z,65.41
2023-03-06T12:50:23.084Z,65.33
2023-03-06T12:51:14.078Z,65.45
2023-03-06T12:52:18.551Z,65.35
2023-03-06T12:53:17.077Z,65.37